Time;durP1;ratioP1;P1;durP2;ratioP2;P2;SDS_P1;SDS_P2;PMS_P1;PMS_P2;Temp;Humidity;BMP_temperature;BMP_pressure;BME280_temperature;BME280_humidity;BME280_pressure;Samples;Min_cycle;Max_cycle;Signal;HPM_P1;HPM_P2
2021/05/25 00:00:57;;;;;;;4.40;2.40;;;10.60;89.30;;;;;;2064769;28;20019;-85
2021/05/25 00:01:57;;;;;;;4.82;2.15;;;10.50;89.20;;;;;;2078264;28;20029;-85
2021/05/25 00:02:58;;;;;;;3.67;2.42;;;10.50;89.20;;;;;;2072675;28;20022;-86
2021/05/25 00:03:59;;;;;;;4.18;2.67;;;10.50;89.30;;;;;;2072138;28;20026;-85
2021/05/25 00:05:00;;;;;;;3.95;2.58;;;10.50;89.30;;;;;;2069792;28;20122;-85
2021/05/25 00:06:01;;;;;;;4.53;2.88;;;10.50;89.90;;;;;;2065429;28;20026;-85
2021/05/25 00:07:01;;;;;;;4.15;2.50;;;10.50;89.30;;;;;;2068312;28;20456;-84
2021/05/25 00:08:03;;;;;;;4.57;2.70;;;10.50;89.30;;;;;;2070561;28;20048;-85
2021/05/25 00:09:04;;;;;;;5.47;2.83;;;10.50;89.30;;;;;;2081108;28;20068;-85
2021/05/25 00:10:07;;;;;;;4.70;2.85;;;10.50;89.30;;;;;;2072304;28;20034;-84
2021/05/25 00:11:08;;;;;;;4.70;2.80;;;10.50;89.30;;;;;;2072194;28;20017;-85
2021/05/25 00:12:08;;;;;;;4.82;2.97;;;10.50;89.40;;;;;;2072161;28;20068;-85
2021/05/25 00:13:10;;;;;;;4.38;2.85;;;10.50;89.40;;;;;;2056169;28;20386;-84
2021/05/25 00:14:12;;;;;;;4.35;2.85;;;10.50;89.40;;;;;;2061065;28;20027;-85
2021/05/25 00:15:17;;;;;;;4.70;2.92;;;10.50;89.40;;;;;;2066787;28;20027;-85
2021/05/25 00:16:17;;;;;;;5.47;2.70;;;10.50;89.40;;;;;;2080563;28;20468;-85
2021/05/25 00:17:18;;;;;;;4.18;2.67;;;10.40;89.30;;;;;;2072594;28;20055;-85
2021/05/25 00:18:20;;;;;;;4.55;2.75;;;10.50;89.40;;;;;;2080302;28;20072;-85
2021/05/25 00:19:21;;;;;;;5.00;2.80;;;10.40;89.40;;;;;;2072405;28;20484;-84
2021/05/25 00:20:23;;;;;;;4.80;2.95;;;10.50;89.40;;;;;;2064486;28;20745;-84
2021/05/25 00:21:24;;;;;;;5.22;3.05;;;10.50;89.40;;;;;;2080357;28;20148;-84
2021/05/25 00:22:25;;;;;;;4.72;2.83;;;10.40;89.40;;;;;;2079836;28;20491;-84
2021/05/25 00:23:26;;;;;;;4.57;2.90;;;10.40;89.40;;;;;;2080581;28;20033;-84
2021/05/25 00:24:26;;;;;;;4.47;2.80;;;10.40;89.40;;;;;;2072513;28;20044;-83
2021/05/25 00:25:27;;;;;;;5.88;2.60;;;10.50;89.50;;;;;;2062479;28;20042;-84
2021/05/25 00:26:28;;;;;;;4.72;2.70;;;10.50;89.40;;;;;;2071800;28;20527;-84
2021/05/25 00:27:29;;;;;;;4.60;2.85;;;10.40;89.40;;;;;;2065832;28;20104;-83
2021/05/25 00:28:29;;;;;;;5.78;3.22;;;10.40;90.00;;;;;;2072414;28;20022;-84
2021/05/25 00:29:30;;;;;;;5.15;3.20;;;10.40;89.40;;;;;;2063777;28;20511;-84
2021/05/25 00:30:30;;;;;;;4.65;2.78;;;10.40;89.40;;;;;;2072536;28;20036;-84
2021/05/25 00:31:31;;;;;;;4.18;2.90;;;10.40;89.40;;;;;;2072521;28;20059;-84
2021/05/25 00:32:32;;;;;;;5.13;3.13;;;10.40;89.50;;;;;;2076957;28;20580;-84
2021/05/25 00:33:33;;;;;;;4.95;3.10;;;10.40;89.50;;;;;;2072225;28;20396;-84
2021/05/25 00:34:34;;;;;;;5.05;3.58;;;10.30;89.50;;;;;;2055446;28;20042;-84
2021/05/25 00:35:35;;;;;;;4.50;3.17;;;10.30;89.50;;;;;;2064508;28;20034;-84
2021/05/25 00:36:36;;;;;;;4.97;2.83;;;10.30;89.60;;;;;;2070324;28;20070;-84
2021/05/25 00:37:37;;;;;;;5.88;2.95;;;10.30;89.60;;;;;;2062083;28;20485;-84
2021/05/25 00:38:38;;;;;;;4.78;2.90;;;10.30;89.60;;;;;;2055589;28;20042;-85
2021/05/25 00:39:39;;;;;;;4.97;2.80;;;10.30;89.60;;;;;;2054884;28;20208;-84
2021/05/25 00:40:40;;;;;;;4.28;2.80;;;10.30;89.70;;;;;;2041139;28;20039;-84
2021/05/25 00:41:40;;;;;;;4.35;2.92;;;10.30;90.10;;;;;;2058640;28;20402;-84
2021/05/25 00:42:43;;;;;;;4.43;3.05;;;10.30;89.60;;;;;;2056022;28;20035;-83
2021/05/25 00:43:44;;;;;;;5.03;2.80;;;10.30;89.70;;;;;;2040012;29;20059;-85
2021/05/25 00:44:44;;;;;;;4.82;2.80;;;10.30;89.70;;;;;;2048338;28;20034;-85
2021/05/25 00:45:45;;;;;;;3.90;2.50;;;10.40;89.70;;;;;;2062518;28;20041;-84
2021/05/25 00:46:46;;;;;;;3.83;2.67;;;10.40;89.70;;;;;;2060786;28;20514;-84
2021/05/25 00:47:47;;;;;;;4.65;2.70;;;10.40;89.70;;;;;;2054616;28;20039;-83
2021/05/25 00:48:47;;;;;;;4.15;2.70;;;10.40;89.70;;;;;;2040116;29;20036;-84
2021/05/25 00:49:48;;;;;;;4.20;2.90;;;10.40;89.70;;;;;;2043588;29;20063;-84
2021/05/25 00:50:49;;;;;;;4.50;2.90;;;10.40;89.60;;;;;;2052469;28;20023;-84
2021/05/25 00:51:49;;;;;;;5.00;3.00;;;10.40;89.70;;;;;;2054914;28;20081;-84
2021/05/25 00:52:52;;;;;;;4.55;3.00;;;10.40;89.60;;;;;;2062029;28;20092;-84
2021/05/25 00:53:53;;;;;;;4.05;2.90;;;10.40;89.60;;;;;;2059041;28;20070;-84
2021/05/25 00:54:54;;;;;;;3.78;2.78;;;10.40;89.60;;;;;;2063374;28;20062;-84
2021/05/25 00:55:55;;;;;;;4.25;2.63;;;10.40;89.60;;;;;;2050518;28;20035;-83
2021/05/25 00:56:57;;;;;;;4.30;3.00;;;10.40;89.70;;;;;;2058893;28;20500;-84
2021/05/25 00:58:01;;;;;;;5.55;2.78;;;10.40;89.60;;;;;;2068325;28;20042;-84
2021/05/25 00:59:02;;;;;;;4.28;2.67;;;10.40;89.60;;;;;;2071459;28;20057;-84
2021/05/25 01:00:06;;;;;;;5.07;3.05;;;10.40;89.50;;;;;;2071217;28;20201;-84
2021/05/25 01:01:06;;;;;;;4.40;2.90;;;10.40;89.50;;;;;;2072909;28;20037;-84
2021/05/25 01:02:07;;;;;;;6.45;3.00;;;10.40;89.50;;;;;;2059611;28;20073;-84
2021/05/25 01:03:10;;;;;;;5.18;3.20;;;10.40;89.50;;;;;;2042919;28;20035;-84
2021/05/25 01:04:10;;;;;;;4.47;2.92;;;10.40;89.50;;;;;;2054915;28;20030;-84
2021/05/25 01:05:14;;;;;;;5.03;3.00;;;10.40;89.50;;;;;;2055553;28;20022;-83
2021/05/25 01:06:14;;;;;;;4.72;3.08;;;10.40;89.50;;;;;;2047943;28;20395;-84
2021/05/25 01:07:15;;;;;;;4.35;2.80;;;10.40;89.60;;;;;;2055824;28;20034;-84
2021/05/25 01:08:16;;;;;;;4.35;3.22;;;10.40;89.50;;;;;;2066622;28;20084;-84
2021/05/25 01:09:17;;;;;;;5.05;3.22;;;10.40;89.50;;;;;;2079952;28;20104;-84
2021/05/25 01:10:43;;;;;;;4.75;2.92;;;10.40;89.50;;;;;;2075192;28;20037;-84
2021/05/25 01:11:41;;;;;;;4.05;2.70;;;10.40;89.40;;;;;;2070082;28;20070;-83
2021/05/25 01:12:52;;;;;;;3.83;2.72;;;10.30;89.40;;;;;;2065701;28;20037;-84
2021/05/25 01:13:55;;;;;;;4.70;3.00;;;10.30;89.40;;;;;;2073475;28;20026;-84
2021/05/25 01:15:01;;;;;;;4.03;3.03;;;10.30;89.40;;;;;;2075666;28;20030;-84
2021/05/25 01:16:02;;;;;;;4.47;2.90;;;10.30;89.40;;;;;;2074243;28;20076;-84
2021/05/25 01:17:03;;;;;;;4.32;2.85;;;10.30;89.40;;;;;;2070720;28;20034;-84
2021/05/25 01:18:04;;;;;;;4.65;2.80;;;10.30;89.40;;;;;;2072321;28;20025;-83
2021/05/25 01:19:05;;;;;;;4.20;2.42;;;10.30;89.40;;;;;;2079631;28;20036;-84
2021/05/25 01:20:07;;;;;;;6.03;3.22;;;10.30;89.40;;;;;;2079294;28;20018;-83
2021/05/25 01:21:10;;;;;;;4.35;2.80;;;10.30;89.40;;;;;;2077955;28;20028;-84
2021/05/25 01:22:11;;;;;;;4.70;2.63;;;10.30;89.40;;;;;;2072974;28;20030;-84
2021/05/25 01:23:11;;;;;;;4.75;2.80;;;10.30;89.40;;;;;;2073044;28;20030;-84
2021/05/25 01:24:12;;;;;;;4.28;2.50;;;10.20;89.30;;;;;;2061626;28;20644;-84
2021/05/25 01:25:14;;;;;;;4.50;2.67;;;10.20;89.40;;;;;;2066712;28;20546;-83
2021/05/25 01:26:17;;;;;;;3.80;2.15;;;10.20;89.40;;;;;;2069119;28;20022;-84
2021/05/25 01:27:18;;;;;;;3.78;2.50;;;10.20;89.40;;;;;;2071347;28;20357;-84
2021/05/25 01:28:21;;;;;;;4.07;2.47;;;10.20;89.40;;;;;;2080713;28;20032;-84
2021/05/25 01:29:22;;;;;;;4.40;2.40;;;10.10;89.30;;;;;;2063822;28;20023;-84
2021/05/25 01:30:29;;;;;;;4.53;2.47;;;10.20;89.30;;;;;;2063986;28;20373;-84
2021/05/25 01:31:30;;;;;;;3.33;2.17;;;10.20;89.30;;;;;;2072488;28;20025;-83
2021/05/25 01:32:31;;;;;;;4.05;2.40;;;10.10;89.30;;;;;;2063827;28;20589;-83
2021/05/25 01:33:35;;;;;;;3.13;1.90;;;10.10;89.30;;;;;;2063892;28;20026;-84
2021/05/25 01:34:36;;;;;;;4.30;1.92;;;10.10;89.30;;;;;;2072358;28;20029;-84
2021/05/25 01:35:37;;;;;;;3.50;2.22;;;10.10;89.30;;;;;;2066012;28;20023;-84
2021/05/25 01:36:38;;;;;;;3.55;2.10;;;10.10;89.40;;;;;;2070131;28;20096;-84
2021/05/25 01:37:39;;;;;;;3.15;2.08;;;10.10;89.30;;;;;;2077803;28;20498;-84
2021/05/25 01:38:40;;;;;;;3.72;2.15;;;10.00;89.30;;;;;;2072214;28;20049;-84
2021/05/25 01:39:42;;;;;;;3.47;1.90;;;10.00;89.30;;;;;;2064219;28;20170;-84
2021/05/25 01:40:44;;;;;;;3.00;2.00;;;10.00;89.40;;;;;;2075273;28;20061;-83
2021/05/25 01:41:45;;;;;;;3.30;1.85;;;10.00;89.40;;;;;;2070392;28;20030;-83
2021/05/25 01:42:46;;;;;;;3.17;1.92;;;10.00;89.30;;;;;;2069313;28;20162;-83
2021/05/25 01:43:47;;;;;;;3.13;1.90;;;9.90;89.30;;;;;;2072061;28;20029;-84
2021/05/25 01:44:47;;;;;;;4.18;1.67;;;9.90;89.40;;;;;;2076727;28;20033;-84
2021/05/25 01:45:49;;;;;;;3.28;1.90;;;9.90;89.70;;;;;;2062138;28;20058;-83
2021/05/25 01:46:50;;;;;;;3.33;2.03;;;9.90;89.40;;;;;;2060459;28;20035;-84
2021/05/25 01:47:52;;;;;;;3.58;1.98;;;9.90;89.40;;;;;;2087264;28;20018;-84
2021/05/25 01:48:53;;;;;;;4.43;2.15;;;9.90;89.40;;;;;;2072073;28;20022;-84
2021/05/25 01:50:10;;;;;;;4.05;1.73;;;9.90;89.40;;;;;;2064068;28;20034;-84
2021/05/25 01:51:11;;;;;;;3.42;1.85;;;9.90;89.50;;;;;;2059148;28;20031;-84
2021/05/25 01:52:12;;;;;;;3.15;1.70;;;9.90;89.40;;;;;;2063431;28;20038;-84
2021/05/25 01:53:26;;;;;;;2.67;1.60;;;9.80;89.40;;;;;;2073600;28;20377;-84
2021/05/25 01:54:26;;;;;;;3.30;1.70;;;9.80;89.40;;;;;;2079630;28;20037;-84
2021/05/25 01:55:37;;;;;;;2.42;1.50;;;9.80;89.40;;;;;;2071509;28;20403;-84
2021/05/25 01:56:37;;;;;;;3.95;1.70;;;9.80;89.40;;;;;;2075303;28;20418;-84
2021/05/25 01:57:40;;;;;;;3.60;1.75;;;9.80;90.00;;;;;;2075264;28;20040;-84
2021/05/25 01:58:40;;;;;;;3.47;1.75;;;9.80;90.00;;;;;;2069207;28;20137;-84
2021/05/25 01:59:41;;;;;;;3.10;1.90;;;9.90;89.40;;;;;;2080244;28;20472;-85
2021/05/25 02:00:45;;;;;;;2.72;1.50;;;9.90;89.40;;;;;;2079306;28;20021;-85
2021/05/25 02:01:46;;;;;;;3.83;1.70;;;9.90;89.40;;;;;;2071539;28;20033;-84
2021/05/25 02:02:46;;;;;;;2.33;1.52;;;9.80;89.30;;;;;;2055950;28;20035;-85
2021/05/25 02:03:47;;;;;;;3.15;1.40;;;9.80;89.40;;;;;;2060235;28;20027;-84
2021/05/25 02:04:47;;;;;;;2.60;1.58;;;9.80;89.40;;;;;;2068638;28;20030;-84
2021/05/25 02:05:49;;;;;;;2.40;1.50;;;9.80;89.40;;;;;;2074127;28;20038;-84
2021/05/25 02:06:50;;;;;;;3.15;1.60;;;9.80;89.40;;;;;;2073207;28;20029;-84
2021/05/25 02:07:52;;;;;;;2.67;1.50;;;9.80;89.40;;;;;;2063667;28;20042;-84
2021/05/25 02:08:54;;;;;;;2.95;1.45;;;9.80;89.40;;;;;;2071491;28;20621;-84
2021/05/25 02:09:55;;;;;;;2.95;1.40;;;9.80;89.40;;;;;;2074375;28;20029;-84
2021/05/25 02:10:59;;;;;;;1.70;1.30;;;9.80;89.40;;;;;;2072665;28;20462;-84
2021/05/25 02:12:00;;;;;;;2.15;1.25;;;9.80;89.30;;;;;;2064275;28;20026;-84
2021/05/25 02:13:05;;;;;;;4.13;1.40;;;9.80;89.30;;;;;;2056009;28;20035;-84
2021/05/25 02:14:06;;;;;;;3.50;1.60;;;9.80;89.30;;;;;;2072311;28;20021;-84
2021/05/25 02:15:07;;;;;;;2.80;1.40;;;9.80;89.30;;;;;;2072044;28;20125;-85
2021/05/25 02:16:13;;;;;;;2.42;1.23;;;9.80;89.30;;;;;;2062848;28;20065;-84
2021/05/25 02:17:14;;;;;;;2.45;1.40;;;9.80;89.30;;;;;;2075932;28;20032;-85
2021/05/25 02:18:21;;;;;;;2.83;1.30;;;9.80;89.20;;;;;;2073210;28;20416;-85
2021/05/25 02:19:22;;;;;;;3.38;1.20;;;9.80;89.80;;;;;;2075379;28;20392;-85
2021/05/25 02:20:22;;;;;;;2.80;1.20;;;9.80;89.30;;;;;;2076568;28;20057;-84
2021/05/25 02:21:23;;;;;;;2.42;1.50;;;9.80;89.20;;;;;;2071861;28;20042;-84
2021/05/25 02:22:24;;;;;;;2.75;1.30;;;9.80;89.20;;;;;;2063320;28;20084;-85
2021/05/25 02:23:25;;;;;;;3.13;1.40;;;9.80;89.20;;;;;;2063676;28;20495;-85
2021/05/25 02:24:26;;;;;;;2.50;1.00;;;9.80;89.20;;;;;;2067163;28;20018;-85
2021/05/25 02:25:27;;;;;;;2.40;1.05;;;9.70;89.10;;;;;;2074934;28;20475;-84
2021/05/25 02:26:27;;;;;;;2.47;1.05;;;9.70;89.20;;;;;;2071144;28;20022;-84
2021/05/25 02:27:28;;;;;;;1.60;1.00;;;9.70;89.20;;;;;;2064055;28;20080;-84
2021/05/25 02:28:29;;;;;;;2.50;1.17;;;9.70;89.20;;;;;;2055948;28;20027;-84
2021/05/25 02:29:30;;;;;;;2.58;1.10;;;9.70;89.20;;;;;;2055761;28;20042;-84
2021/05/25 02:30:31;;;;;;;2.08;1.20;;;9.70;89.20;;;;;;2056263;28;20477;-84
2021/05/25 02:31:32;;;;;;;1.65;1.10;;;9.70;89.20;;;;;;2062154;28;20065;-84
2021/05/25 02:32:33;;;;;;;1.90;1.05;;;9.70;89.20;;;;;;2071151;28;20460;-84
2021/05/25 02:33:34;;;;;;;2.42;1.08;;;9.60;89.20;;;;;;2074779;28;20066;-84
2021/05/25 02:34:35;;;;;;;2.75;1.33;;;9.60;89.20;;;;;;2073923;28;20029;-84
2021/05/25 02:35:37;;;;;;;1.55;1.00;;;9.60;89.20;;;;;;2073436;28;20034;-84
2021/05/25 02:36:38;;;;;;;2.17;1.02;;;9.60;89.20;;;;;;2072990;28;20022;-84
2021/05/25 02:37:38;;;;;;;1.80;1.02;;;9.60;89.20;;;;;;2074937;28;20487;-85
2021/05/25 02:38:39;;;;;;;2.33;0.95;;;9.60;89.20;;;;;;2075145;28;20030;-85
2021/05/25 02:39:40;;;;;;;3.10;1.20;;;9.60;89.20;;;;;;2064835;28;20499;-85
2021/05/25 02:40:42;;;;;;;2.33;1.02;;;9.60;89.20;;;;;;2056551;28;20126;-85
2021/05/25 02:41:42;;;;;;;2.30;1.00;;;9.60;89.20;;;;;;2070687;28;20057;-85
2021/05/25 02:42:43;;;;;;;1.75;0.88;;;9.60;89.20;;;;;;2061780;28;20030;-85
2021/05/25 02:43:44;;;;;;;3.40;1.27;;;9.60;89.20;;;;;;2065703;28;20393;-85
2021/05/25 02:44:44;;;;;;;2.38;1.13;;;9.60;89.20;;;;;;2072070;28;20042;-83
2021/05/25 02:45:46;;;;;;;2.53;1.17;;;9.60;89.10;;;;;;2081146;28;20038;-83
2021/05/25 02:46:46;;;;;;;2.70;1.33;;;9.60;89.10;;;;;;2072915;28;20134;-84
2021/05/25 02:47:47;;;;;;;2.80;1.13;;;9.60;89.10;;;;;;2081268;28;20029;-84
2021/05/25 02:48:48;;;;;;;2.05;1.02;;;9.50;88.90;;;;;;2086449;28;20116;-84
2021/05/25 02:49:49;;;;;;;1.98;1.00;;;9.50;89.00;;;;;;2078597;28;20121;-84
2021/05/25 02:50:50;;;;;;;2.13;1.00;;;9.50;89.00;;;;;;2079350;28;20089;-85
2021/05/25 02:51:51;;;;;;;2.25;0.95;;;9.50;89.00;;;;;;2079873;28;20030;-85
2021/05/25 02:52:52;;;;;;;3.10;1.33;;;9.50;89.10;;;;;;2084120;28;20559;-84
2021/05/25 02:53:53;;;;;;;2.50;1.15;;;9.50;89.00;;;;;;2079127;28;20037;-84
2021/05/25 02:54:54;;;;;;;2.08;1.00;;;9.50;89.00;;;;;;2073660;28;20098;-85
2021/05/25 02:55:54;;;;;;;2.95;1.20;;;9.50;89.60;;;;;;2081376;28;20514;-84
2021/05/25 02:56:55;;;;;;;3.92;1.10;;;9.50;89.00;;;;;;2081091;28;20510;-84
2021/05/25 02:57:57;;;;;;;2.03;1.20;;;9.50;88.90;;;;;;2079893;28;20034;-84
2021/05/25 02:58:58;;;;;;;2.33;1.10;;;9.50;89.00;;;;;;2079953;28;20026;-83
2021/05/25 02:59:58;;;;;;;1.85;1.00;;;9.50;88.90;;;;;;2078143;28;20034;-84
2021/05/25 03:00:59;;;;;;;2.92;1.10;;;9.40;88.90;;;;;;2073409;28;20113;-84
2021/05/25 03:02:00;;;;;;;3.03;1.13;;;9.40;88.90;;;;;;2073469;28;20499;-84
2021/05/25 03:03:01;;;;;;;2.63;1.05;;;9.40;88.90;;;;;;2065354;28;20086;-84
2021/05/25 03:04:02;;;;;;;2.88;1.20;;;9.40;88.90;;;;;;2065040;28;20416;-84
2021/05/25 03:05:04;;;;;;;3.05;1.05;;;9.40;88.90;;;;;;2057309;28;20520;-84
2021/05/25 03:06:05;;;;;;;3.30;1.05;;;9.30;88.90;;;;;;2068168;28;20125;-84
2021/05/25 03:07:06;;;;;;;2.63;1.10;;;9.30;88.90;;;;;;2066429;28;20487;-84
2021/05/25 03:08:08;;;;;;;5.05;1.20;;;9.30;89.00;;;;;;2081031;28;20068;-84
2021/05/25 03:09:09;;;;;;;1.88;1.08;;;9.30;89.00;;;;;;2079659;28;20034;-84
2021/05/25 03:10:13;;;;;;;2.13;1.10;;;9.30;89.00;;;;;;2076629;28;20029;-84
2021/05/25 03:11:14;;;;;;;3.40;1.40;;;9.20;89.00;;;;;;2077239;28;20032;-84
2021/05/25 03:12:15;;;;;;;2.28;1.20;;;9.20;89.00;;;;;;2078791;28;20060;-84
2021/05/25 03:13:16;;;;;;;2.38;1.17;;;9.20;89.00;;;;;;2071334;28;20029;-85
2021/05/25 03:14:17;;;;;;;2.80;1.05;;;9.20;89.00;;;;;;2065279;28;20098;-84
2021/05/25 03:15:22;;;;;;;3.10;1.02;;;9.20;89.10;;;;;;2073860;28;20022;-84
2021/05/25 03:16:22;;;;;;;3.10;1.33;;;9.20;89.10;;;;;;2080597;28;20029;-84
2021/05/25 03:17:23;;;;;;;3.88;1.40;;;9.10;89.00;;;;;;2075680;28;20098;-84
2021/05/25 03:18:24;;;;;;;2.58;1.05;;;9.10;89.10;;;;;;2079590;28;20025;-84
2021/05/25 03:19:24;;;;;;;2.35;1.10;;;9.10;89.10;;;;;;2080119;28;20036;-85
2021/05/25 03:20:28;;;;;;;3.85;1.10;;;9.10;89.10;;;;;;2063706;28;20027;-84
2021/05/25 03:21:29;;;;;;;2.22;0.95;;;9.10;89.20;;;;;;2054534;28;20034;-84
2021/05/25 03:22:29;;;;;;;3.58;1.35;;;9.10;89.70;;;;;;2064943;28;20086;-85
2021/05/25 03:23:30;;;;;;;2.50;1.10;;;9.10;89.20;;;;;;2073456;28;20120;-85
2021/05/25 03:24:31;;;;;;;2.03;1.10;;;9.10;89.20;;;;;;2069791;28;20029;-84
2021/05/25 03:25:31;;;;;;;2.53;1.35;;;9.10;89.20;;;;;;2064849;28;20177;-84
2021/05/25 03:26:32;;;;;;;2.58;1.20;;;9.10;89.20;;;;;;2071772;28;20034;-84
2021/05/25 03:27:33;;;;;;;2.90;1.30;;;9.10;89.20;;;;;;2072221;28;20037;-84
2021/05/25 03:28:33;;;;;;;3.00;1.40;;;9.10;89.10;;;;;;2069697;28;20030;-85
2021/05/25 03:29:34;;;;;;;2.10;1.08;;;9.00;89.10;;;;;;2078116;28;20042;-84
2021/05/25 03:30:37;;;;;;;2.33;1.20;;;9.00;89.10;;;;;;2066029;28;20205;-85
2021/05/25 03:31:38;;;;;;;2.63;1.30;;;9.00;89.10;;;;;;2064451;28;20041;-85
2021/05/25 03:32:39;;;;;;;2.83;1.10;;;9.00;89.10;;;;;;2057350;28;20066;-85
2021/05/25 03:33:40;;;;;;;2.55;1.30;;;9.00;89.10;;;;;;2070818;28;20026;-85
2021/05/25 03:34:40;;;;;;;3.20;1.20;;;9.00;89.10;;;;;;2084291;28;20562;-85
2021/05/25 03:35:41;;;;;;;2.95;1.35;;;9.00;89.10;;;;;;2077656;28;20033;-85
2021/05/25 03:36:42;;;;;;;3.30;1.40;;;9.00;89.10;;;;;;2061176;28;20018;-85
2021/05/25 03:37:43;;;;;;;3.42;1.40;;;9.00;89.10;;;;;;2064981;28;20030;-84
2021/05/25 03:38:43;;;;;;;3.15;1.35;;;9.00;89.10;;;;;;2073176;28;20021;-85
2021/05/25 03:39:44;;;;;;;2.40;1.20;;;8.90;89.00;;;;;;2061893;28;20031;-84
2021/05/25 03:40:45;;;;;;;3.30;1.25;;;9.00;89.10;;;;;;2064350;28;20069;-85
2021/05/25 03:41:45;;;;;;;1.90;1.13;;;8.90;89.10;;;;;;2064476;28;20574;-84
2021/05/25 03:42:48;;;;;;;2.30;1.08;;;8.90;89.10;;;;;;2076612;28;20057;-85
2021/05/25 03:43:49;;;;;;;2.78;1.30;;;8.90;89.20;;;;;;2072482;28;20057;-85
2021/05/25 03:44:49;;;;;;;2.88;1.30;;;8.90;89.20;;;;;;2072049;28;20578;-84
2021/05/25 03:45:50;;;;;;;3.97;1.30;;;8.90;89.20;;;;;;2064760;28;20045;-85
2021/05/25 03:46:51;;;;;;;3.22;1.38;;;8.90;89.20;;;;;;2072735;28;20033;-85
2021/05/25 03:47:53;;;;;;;2.65;1.17;;;8.90;89.20;;;;;;2064995;28;20092;-85
2021/05/25 03:48:54;;;;;;;3.70;1.38;;;8.90;89.10;;;;;;2054201;28;20126;-85
2021/05/25 03:50:06;;;;;;;3.72;1.10;;;8.90;89.10;;;;;;2071577;28;20064;-85
2021/05/25 03:51:07;;;;;;;2.70;1.40;;;9.00;89.20;;;;;;2074184;28;20120;-85
2021/05/25 03:52:07;;;;;;;4.18;1.42;;;9.00;89.10;;;;;;2080623;28;20026;-85
2021/05/25 03:53:09;;;;;;;2.17;1.08;;;8.90;89.00;;;;;;2074160;28;20053;-84
2021/05/25 03:54:15;;;;;;;2.85;1.50;;;9.00;89.00;;;;;;2071937;28;20018;-85
2021/05/25 03:56:55;;;;;;;2.08;1.20;;;9.00;89.00;;;;;;2072996;28;20060;-85
2021/05/25 03:59:15;;;;;;;2.72;1.33;;;9.00;88.90;;;;;;2077050;28;20022;-84
2021/05/25 04:00:16;;;;;;;2.67;1.15;;;9.00;88.80;;;;;;2066933;28;20508;-85
2021/05/25 04:01:27;;;;;;;2.38;1.20;;;9.00;89.50;;;;;;2072653;28;20018;-85
2021/05/25 04:02:28;;;;;;;3.28;1.27;;;9.00;88.90;;;;;;2074687;28;20026;-85
2021/05/25 04:03:29;;;;;;;4.32;1.48;;;9.00;88.80;;;;;;2070338;28;20038;-85
2021/05/25 04:04:32;;;;;;;2.65;1.30;;;9.00;88.80;;;;;;2056629;28;20027;-85
2021/05/25 04:05:33;;;;;;;2.63;1.20;;;9.00;88.80;;;;;;2063053;28;20065;-85
2021/05/25 04:06:34;;;;;;;3.05;1.35;;;9.00;88.80;;;;;;2072583;28;20036;-85
2021/05/25 04:07:35;;;;;;;3.58;1.27;;;9.00;88.80;;;;;;2070059;28;20515;-85
2021/05/25 04:08:35;;;;;;;2.50;1.20;;;9.00;88.80;;;;;;2059514;28;20588;-86
2021/05/25 04:09:36;;;;;;;3.00;1.15;;;9.00;88.80;;;;;;2064629;28;20096;-86
2021/05/25 04:10:37;;;;;;;2.38;1.10;;;9.00;88.80;;;;;;2056377;28;20481;-86
2021/05/25 04:11:38;;;;;;;3.08;1.50;;;9.00;88.80;;;;;;2056153;28;20027;-86
2021/05/25 04:12:38;;;;;;;2.97;1.20;;;9.00;88.80;;;;;;2064131;28;20500;-86
2021/05/25 04:13:39;;;;;;;2.42;1.23;;;9.10;88.90;;;;;;2064727;28;20038;-85
2021/05/25 04:14:40;;;;;;;2.92;1.30;;;9.10;88.80;;;;;;2064503;28;20496;-85
2021/05/25 04:15:50;;;;;;;3.42;1.40;;;9.10;88.80;;;;;;2064551;28;20089;-85
2021/05/25 04:16:51;;;;;;;2.53;1.30;;;9.10;88.80;;;;;;2070201;28;20049;-86
2021/05/25 04:17:55;;;;;;;3.92;1.80;;;9.10;88.70;;;;;;2068133;28;20089;-86
2021/05/25 04:18:56;;;;;;;2.08;1.10;;;9.10;88.70;;;;;;2076365;28;20091;-85
2021/05/25 04:19:56;;;;;;;3.30;1.50;;;9.10;88.70;;;;;;2078126;28;20472;-85
2021/05/25 04:20:57;;;;;;;4.03;1.58;;;9.10;88.70;;;;;;2070747;28;20041;-86
2021/05/25 04:21:57;;;;;;;4.28;1.30;;;9.10;88.70;;;;;;2068245;28;20030;-85
2021/05/25 04:22:58;;;;;;;2.97;1.40;;;9.10;88.70;;;;;;2069593;28;20043;-86
2021/05/25 04:23:59;;;;;;;2.75;1.25;;;9.10;88.60;;;;;;2073467;28;20022;-86
2021/05/25 04:25:00;;;;;;;3.25;1.30;;;9.10;88.60;;;;;;2079982;28;20026;-86
2021/05/25 04:26:01;;;;;;;3.45;1.50;;;9.10;88.60;;;;;;2064594;28;20385;-85
2021/05/25 04:27:02;;;;;;;2.47;1.25;;;9.20;88.70;;;;;;2063713;28;20084;-84
2021/05/25 04:28:03;;;;;;;2.58;1.23;;;9.20;88.70;;;;;;2066926;28;20036;-84
2021/05/25 04:29:03;;;;;;;2.38;1.20;;;9.20;88.70;;;;;;2079911;28;20526;-84
2021/05/25 04:30:06;;;;;;;2.75;1.17;;;9.20;88.60;;;;;;2064498;28;20038;-84
2021/05/25 04:31:07;;;;;;;3.17;1.33;;;9.20;88.60;;;;;;2056994;28;20093;-84
2021/05/25 04:32:08;;;;;;;3.67;1.50;;;9.20;88.60;;;;;;2072170;28;20084;-84
2021/05/25 04:33:09;;;;;;;4.70;1.60;;;9.20;88.60;;;;;;2070580;28;20022;-84
2021/05/25 04:34:09;;;;;;;3.53;1.67;;;9.20;88.50;;;;;;2057045;28;20041;-84
2021/05/25 04:35:10;;;;;;;3.22;1.50;;;9.20;88.50;;;;;;2055995;28;20515;-84
2021/05/25 04:36:11;;;;;;;3.33;1.60;;;9.20;88.50;;;;;;2048500;28;20121;-85
2021/05/25 04:37:12;;;;;;;3.92;1.65;;;9.20;88.50;;;;;;2047982;28;20034;-85
2021/05/25 04:38:13;;;;;;;2.53;1.33;;;9.20;88.60;;;;;;2063300;28;20034;-84
2021/05/25 04:39:13;;;;;;;2.78;1.60;;;9.20;89.20;;;;;;2079055;28;20021;-85
2021/05/25 04:40:15;;;;;;;3.15;1.52;;;9.20;88.60;;;;;;2069532;28;20031;-84
2021/05/25 04:41:16;;;;;;;2.95;1.55;;;9.20;88.70;;;;;;2043395;28;20032;-84
2021/05/25 04:42:17;;;;;;;3.00;1.50;;;9.20;88.70;;;;;;2046936;28;20444;-85
2021/05/25 04:43:20;;;;;;;3.03;1.73;;;9.20;88.60;;;;;;2068004;28;20022;-84
2021/05/25 04:44:20;;;;;;;2.88;1.65;;;9.20;88.60;;;;;;2057949;28;20027;-84
2021/05/25 04:45:21;;;;;;;4.50;1.88;;;9.20;88.60;;;;;;2061987;28;20031;-84
2021/05/25 04:46:22;;;;;;;3.42;1.60;;;9.30;88.60;;;;;;2077424;28;20057;-85
2021/05/25 04:47:23;;;;;;;2.78;1.50;;;9.30;88.60;;;;;;2079279;28;20069;-84
2021/05/25 04:48:23;;;;;;;3.60;1.90;;;9.30;88.60;;;;;;2060011;28;20057;-85
2021/05/25 04:49:24;;;;;;;4.45;1.67;;;9.30;88.50;;;;;;2067574;28;20075;-85
2021/05/25 04:50:25;;;;;;;2.85;1.50;;;9.30;88.50;;;;;;2076613;28;20121;-85
2021/05/25 04:51:25;;;;;;;4.32;1.90;;;9.30;88.40;;;;;;2079246;28;20026;-84
2021/05/25 04:52:26;;;;;;;2.78;1.67;;;9.40;88.50;;;;;;2066316;28;20026;-84
2021/05/25 04:53:27;;;;;;;4.00;1.90;;;9.40;88.40;;;;;;2056084;28;20077;-84
2021/05/25 04:54:27;;;;;;;2.53;1.70;;;9.40;88.40;;;;;;2063500;28;20022;-85
2021/05/25 04:55:28;;;;;;;3.42;1.65;;;9.40;88.40;;;;;;2055722;28;20062;-85
2021/05/25 04:56:29;;;;;;;2.45;1.85;;;9.40;88.30;;;;;;2064524;28;20030;-85
2021/05/25 04:57:31;;;;;;;2.92;1.83;;;9.40;88.20;;;;;;2055472;28;20094;-84
2021/05/25 04:58:31;;;;;;;4.05;1.90;;;9.40;88.30;;;;;;2057218;28;20018;-85
2021/05/25 04:59:32;;;;;;;3.33;1.92;;;9.40;88.30;;;;;;2064043;28;20439;-84
2021/05/25 05:00:33;;;;;;;3.95;2.00;;;9.40;88.30;;;;;;2076560;28;20435;-84
2021/05/25 05:01:34;;;;;;;3.67;2.15;;;9.40;88.30;;;;;;2071541;28;20307;-84
2021/05/25 05:02:34;;;;;;;4.07;2.10;;;9.50;88.30;;;;;;2073606;28;20041;-84
2021/05/25 05:03:35;;;;;;;3.28;1.83;;;9.40;88.80;;;;;;2064996;28;20513;-83
2021/05/25 05:04:35;;;;;;;3.47;2.08;;;9.50;88.20;;;;;;2055821;28;20456;-84
2021/05/25 05:05:36;;;;;;;4.18;1.98;;;9.50;88.20;;;;;;2068378;28;20095;-84
2021/05/25 05:06:37;;;;;;;3.75;2.22;;;9.50;88.10;;;;;;2079051;28;20119;-85
2021/05/25 05:07:38;;;;;;;3.00;1.90;;;9.50;88.10;;;;;;2082787;28;20029;-84
2021/05/25 05:08:43;;;;;;;3.30;1.95;;;9.50;88.10;;;;;;2065981;28;20025;-84
2021/05/25 05:09:44;;;;;;;3.67;2.20;;;9.50;88.10;;;;;;2064312;28;20088;-84
2021/05/25 05:10:45;;;;;;;3.45;2.20;;;9.50;88.70;;;;;;2068954;28;20049;-84
2021/05/25 05:11:45;;;;;;;2.90;2.00;;;9.50;88.00;;;;;;2079947;28;20045;-84
2021/05/25 05:12:47;;;;;;;3.15;2.10;;;9.50;88.00;;;;;;2072400;28;20038;-84
2021/05/25 05:13:47;;;;;;;3.97;2.40;;;9.50;88.00;;;;;;2072183;28;20510;-84
2021/05/25 05:14:48;;;;;;;3.63;2.13;;;9.50;88.00;;;;;;2071424;28;20037;-85
2021/05/25 05:15:48;;;;;;;4.28;2.42;;;9.50;88.00;;;;;;2074356;28;20068;-85
2021/05/25 05:16:49;;;;;;;3.90;2.25;;;9.50;88.00;;;;;;2071575;28;20058;-85
2021/05/25 05:17:50;;;;;;;3.97;2.45;;;9.50;88.00;;;;;;2056346;28;20035;-85
2021/05/25 05:18:51;;;;;;;3.28;2.17;;;9.50;88.00;;;;;;2065421;28;20019;-85
2021/05/25 05:19:52;;;;;;;3.50;2.28;;;9.50;88.00;;;;;;2060698;28;20400;-85
2021/05/25 05:20:52;;;;;;;4.05;2.35;;;9.50;88.00;;;;;;2065072;28;20037;-84
2021/05/25 05:21:53;;;;;;;4.72;2.15;;;9.50;88.00;;;;;;2070705;28;20148;-85
2021/05/25 05:22:54;;;;;;;3.88;2.30;;;9.50;87.90;;;;;;2072231;28;20416;-84
2021/05/25 05:23:55;;;;;;;4.13;2.30;;;9.50;87.90;;;;;;2068333;28;20037;-84
2021/05/25 05:24:55;;;;;;;3.40;2.30;;;9.50;87.90;;;;;;2082960;28;20377;-84
2021/05/25 05:25:56;;;;;;;4.00;2.33;;;9.50;87.90;;;;;;2072124;28;20081;-86